createdAt,value
2023-01-21T00:02:05.438Z,100420.89
2023-01-21T00:04:33.950Z,100427.86
2023-01-21T00:07:01.940Z,100431.38
2023-01-21T00:09:30.137Z,100430.34
2023-01-21T00:12:02.606Z,100436.88
2023-01-21T00:14:31.146Z,100429.59
2023-01-21T00:16:59.759Z,100434.05
2023-01-21T00:19:29.209Z,100436.60
2023-01-21T00:21:57.226Z,100432.23
2023-01-21T00:24:25.423Z,100410.20
2023-01-21T00:26:53.755Z,100418.57
2023-01-21T00:29:22.007Z,100424.33
2023-01-21T00:31:51.174Z,100426.89
2023-01-21T00:34:20.479Z,100425.77
2023-01-21T00:36:48.499Z,100423.64
2023-01-21T00:39:16.881Z,100424.32
2023-01-21T00:41:45.266Z,100415.05
2023-01-21T00:44:13.236Z,100408.46
2023-01-21T00:46:41.162Z,100398.13
2023-01-21T00:49:09.416Z,100397.77
2023-01-21T00:51:37.384Z,100397.14
2023-01-21T00:54:05.537Z,100396.81
2023-01-21T00:56:35.998Z,100396.70
2023-01-21T00:59:04.271Z,100393.02
2023-01-21T01:01:36.471Z,100385.50
2023-01-21T01:04:05.521Z,100377.28
2023-01-21T01:06:33.856Z,100376.39
2023-01-21T01:09:03.892Z,100378.61
2023-01-21T01:11:31.961Z,100377.55
2023-01-21T01:14:00.157Z,100379.40
2023-01-21T01:16:28.293Z,100368.48
2023-01-21T01:18:56.338Z,100370.35
2023-01-21T01:21:24.675Z,100368.34
2023-01-21T01:23:54.202Z,100382.52
2023-01-21T01:26:22.919Z,100381.52
2023-01-21T01:28:51.042Z,100381.02
2023-01-21T01:31:20.855Z,100384.77
2023-01-21T01:33:49.138Z,100371.92
2023-01-21T01:36:20.285Z,100374.29
2023-01-21T01:38:48.246Z,100364.20
2023-01-21T01:41:19.404Z,100351.53
2023-01-21T01:43:54.114Z,100345.08
2023-01-21T01:46:23.504Z,100346.89
2023-01-21T01:48:55.989Z,100342.42
2023-01-21T01:51:29.759Z,100346.14
2023-01-21T01:53:58.451Z,100343.00
2023-01-21T01:56:28.315Z,100337.09
2023-01-21T01:58:56.971Z,100329.48
2023-01-21T02:01:25.330Z,100313.08
2023-01-21T02:03:58.855Z,100306.97
2023-01-21T02:06:27.653Z,100305.54
2023-01-21T02:08:57.096Z,100299.39
2023-01-21T02:11:25.078Z,100295.45
2023-01-21T02:13:57.441Z,100289.67
2023-01-21T02:16:46.715Z,100279.33
2023-01-21T02:20:11.488Z,100273.43
2023-01-21T02:22:52.061Z,100266.74
2023-01-21T02:25:50.135Z,100265.83
2023-01-21T02:28:52.739Z,100264.91
2023-01-21T02:31:35.422Z,100261.66
2023-01-21T02:34:13.760Z,100261.10
2023-01-21T02:36:59.537Z,100257.88
2023-01-21T02:39:43.688Z,100252.13
2023-01-21T02:42:18.107Z,100251.38
2023-01-21T02:44:53.857Z,100254.89
2023-01-21T02:47:28.283Z,100259.62
2023-01-21T02:50:00.894Z,100256.27
2023-01-21T02:52:29.018Z,100256.09
2023-01-21T02:54:59.038Z,100249.66
2023-01-21T02:57:42.460Z,100249.79
2023-01-21T03:00:16.893Z,100249.21
2023-01-21T03:03:26.260Z,100247.14
2023-01-21T03:06:32.319Z,100240.27
2023-01-21T03:09:06.851Z,100241.78
2023-01-21T03:11:35.434Z,100236.59
2023-01-21T03:14:31.137Z,100229.53
2023-01-21T03:17:07.411Z,100229.47
2023-01-21T03:19:42.757Z,100229.47
2023-01-21T03:22:15.024Z,100219.58
2023-01-21T03:24:46.861Z,100202.72
2023-01-21T03:27:19.778Z,100196.30
2023-01-21T03:29:53.805Z,100196.12
2023-01-21T03:32:23.707Z,100194.02
2023-01-21T03:34:54.624Z,100195.96
2023-01-21T03:37:28.446Z,100187.53
2023-01-21T03:40:04.992Z,100181.27
2023-01-21T03:42:33.744Z,100173.63
2023-01-21T03:45:02.295Z,100178.11
2023-01-21T03:47:34.546Z,100180.63
2023-01-21T03:50:06.731Z,100178.23
2023-01-21T03:52:38.479Z,100184.29
2023-01-21T03:55:08.248Z,100176.03
2023-01-21T03:57:36.346Z,100171.79
2023-01-21T04:00:06.660Z,100170.77
2023-01-21T04:02:34.785Z,100160.95
2023-01-21T04:05:03.274Z,100153.98
2023-01-21T04:07:31.309Z,100149.08
2023-01-21T04:09:59.261Z,100141.67
2023-01-21T04:12:27.282Z,100134.23
2023-01-21T04:14:55.245Z,100139.95
2023-01-21T04:17:23.421Z,100148.36
2023-01-21T04:19:51.446Z,100149.23
2023-01-21T04:22:20.031Z,100152.27
2023-01-21T04:24:48.052Z,100153.80
2023-01-21T04:27:16.121Z,100155.15
2023-01-21T04:29:44.106Z,100156.67
2023-01-21T04:32:12.171Z,100161.05
2023-01-21T04:34:40.141Z,100170.95
2023-01-21T04:37:08.216Z,100165.54
2023-01-21T04:39:36.198Z,100169.20
2023-01-21T04:42:04.772Z,100172.38
2023-01-21T04:44:32.829Z,100175.42
2023-01-21T04:47:00.810Z,100179.12
2023-01-21T04:49:28.987Z,100176.11
2023-01-21T04:51:57.274Z,100177.37
2023-01-21T04:54:25.557Z,100183.19
2023-01-21T04:56:53.705Z,100179.52
2023-01-21T04:59:21.839Z,100179.39
2023-01-21T05:01:49.879Z,100178.36
2023-01-21T05:04:19.040Z,100178.55
2023-01-21T05:06:47.150Z,100177.45
2023-01-21T05:09:15.106Z,100171.09
2023-01-21T05:11:43.003Z,100172.42
2023-01-21T05:14:10.945Z,100171.23
2023-01-21T05:16:38.909Z,100174.08
2023-01-21T05:19:07.149Z,100171.90
2023-01-21T05:21:35.578Z,100177.13
2023-01-21T05:24:03.756Z,100175.77
2023-01-21T05:26:31.703Z,100172.59
2023-01-21T05:28:59.600Z,100167.56
2023-01-21T05:31:28.335Z,100166.85
2023-01-21T05:33:57.521Z,100166.34
2023-01-21T05:36:25.758Z,100169.39
2023-01-21T05:38:53.732Z,100166.88
2023-01-21T05:41:21.878Z,100166.04
2023-01-21T05:43:49.873Z,100159.30
2023-01-21T05:46:18.667Z,100159.16
2023-01-21T05:48:46.629Z,100159.35
2023-01-21T05:51:14.586Z,100159.69
2023-01-21T05:53:42.517Z,100162.71
2023-01-21T05:56:10.476Z,100165.61
2023-01-21T05:58:38.420Z,100173.86
2023-01-21T06:01:06.489Z,100176.90
2023-01-21T06:03:35.062Z,100179.14
2023-01-21T06:06:03.286Z,100176.33
2023-01-21T06:08:31.428Z,100184.20
2023-01-21T06:10:59.402Z,100180.67
2023-01-21T06:13:27.671Z,100186.71
2023-01-21T06:15:56.150Z,100182.99
2023-01-21T06:18:24.901Z,100188.75
2023-01-21T06:20:53.024Z,100185.54
2023-01-21T06:23:21.551Z,100186.71
2023-01-21T06:25:49.476Z,100186.73
2023-01-21T06:28:17.405Z,100189.94
2023-01-21T06:30:45.524Z,100187.61
2023-01-21T06:33:13.535Z,100189.50
2023-01-21T06:35:41.434Z,100181.11
2023-01-21T06:38:09.326Z,100185.17
2023-01-21T06:40:37.260Z,100188.11
2023-01-21T06:43:05.372Z,100191.11
2023-01-21T06:45:33.282Z,100190.73
2023-01-21T06:48:01.416Z,100192.26
2023-01-21T06:50:29.516Z,100194.22
2023-01-21T06:52:57.697Z,100197.27
2023-01-21T06:55:25.669Z,100195.30
2023-01-21T06:57:53.611Z,100194.83
2023-01-21T07:00:23.003Z,100197.53
2023-01-21T07:02:54.961Z,100195.54
2023-01-21T07:05:22.972Z,100194.70
2023-01-21T07:07:54.847Z,100203.77
2023-01-21T07:10:22.977Z,100191.52
2023-01-21T07:12:51.838Z,100195.23
2023-01-21T07:15:20.038Z,100204.32
2023-01-21T07:17:48.112Z,100201.63
2023-01-21T07:20:17.106Z,100203.99
2023-01-21T07:22:45.060Z,100206.35
2023-01-21T07:25:13.025Z,100209.57
2023-01-21T07:27:42.035Z,100203.33
2023-01-21T07:30:16.930Z,100201.44
2023-01-21T07:32:45.178Z,100200.02
2023-01-21T07:35:13.533Z,100190.23
2023-01-21T07:37:41.524Z,100198.97
2023-01-21T07:40:12.330Z,100199.59
2023-01-21T07:42:40.247Z,100196.17
2023-01-21T07:45:10.249Z,100193.48
2023-01-21T07:47:38.716Z,100194.85
2023-01-21T07:50:09.228Z,100191.86
2023-01-21T07:52:37.273Z,100191.27
2023-01-21T07:55:07.990Z,100193.13
2023-01-21T07:57:36.200Z,100191.25
2023-01-21T08:00:06.657Z,100192.11
2023-01-21T08:02:42.425Z,100193.67
2023-01-21T08:05:16.713Z,100198.41
2023-01-21T08:07:45.176Z,100200.46
2023-01-21T08:10:14.565Z,100202.23
2023-01-21T08:12:44.391Z,100196.05
2023-01-21T08:15:12.983Z,100194.41
2023-01-21T08:17:43.085Z,100202.84
2023-01-21T08:20:13.058Z,100203.85
2023-01-21T08:22:41.128Z,100199.31
2023-01-21T08:25:13.323Z,100200.70
2023-01-21T08:27:44.187Z,100203.41
2023-01-21T08:30:17.535Z,100207.83
2023-01-21T08:32:45.501Z,100211.53
2023-01-21T08:35:13.657Z,100213.09
2023-01-21T08:37:41.643Z,100219.39
2023-01-21T08:40:11.919Z,100219.14
2023-01-21T08:42:39.886Z,100220.55
2023-01-21T08:45:10.384Z,100222.98
2023-01-21T08:47:38.278Z,100228.59
2023-01-21T08:50:08.852Z,100230.66
2023-01-21T08:52:36.824Z,100229.52
2023-01-21T08:55:06.028Z,100236.13
2023-01-21T08:57:34.016Z,100234.65
2023-01-21T09:00:02.165Z,100232.52
2023-01-21T09:02:30.393Z,100235.44
2023-01-21T09:04:58.560Z,100237.46
2023-01-21T09:07:26.523Z,100238.04
2023-01-21T09:09:54.462Z,100233.50
2023-01-21T09:12:22.473Z,100246.15
2023-01-21T09:14:50.521Z,100241.63
2023-01-21T09:17:18.491Z,100245.05
2023-01-21T09:19:46.519Z,100239.45
2023-01-21T09:22:15.211Z,100238.06
2023-01-21T09:24:43.424Z,100242.09
2023-01-21T09:27:11.711Z,100242.77
2023-01-21T09:29:40.960Z,100247.81
2023-01-21T09:32:09.442Z,100257.42
2023-01-21T09:34:37.679Z,100257.76
2023-01-21T09:37:05.642Z,100258.44
2023-01-21T09:39:33.587Z,100260.52
2023-01-21T09:42:01.703Z,100260.18
2023-01-21T09:44:35.148Z,100260.43
2023-01-21T09:47:09.483Z,100264.21
2023-01-21T09:49:41.337Z,100262.46
2023-01-21T09:52:22.237Z,100261.98
2023-01-21T09:54:50.552Z,100266.81
2023-01-21T09:57:51.849Z,100274.73
2023-01-21T10:00:36.683Z,100266.01
2023-01-21T10:03:16.993Z,100264.54
2023-01-21T10:06:22.060Z,100267.11
2023-01-21T10:09:15.402Z,100271.67
2023-01-21T10:12:08.110Z,100275.05
2023-01-21T10:14:54.088Z,100277.29
2023-01-21T10:17:33.546Z,100278.56
2023-01-21T10:20:11.799Z,100277.20
2023-01-21T10:22:43.900Z,100277.23
2023-01-21T10:25:22.626Z,100280.98
2023-01-21T10:27:51.000Z,100278.98
2023-01-21T10:30:29.937Z,100285.44
2023-01-21T10:32:58.494Z,100282.31
2023-01-21T10:35:39.288Z,100283.59
2023-01-21T10:38:12.646Z,100283.69
2023-01-21T10:40:47.099Z,100287.44
2023-01-21T10:43:35.626Z,100292.52
2023-01-21T10:46:14.889Z,100300.98
2023-01-21T10:48:50.383Z,100298.63
2023-01-21T10:51:24.725Z,100297.06
2023-01-21T10:53:58.795Z,100303.90
2023-01-21T10:56:39.929Z,100307.08
2023-01-21T10:59:12.276Z,100308.91
2023-01-21T11:01:42.897Z,100309.38
2023-01-21T11:04:14.909Z,100310.55
2023-01-21T11:06:43.900Z,100312.39
2023-01-21T11:09:14.917Z,100318.65
2023-01-21T11:11:43.418Z,100323.93
2023-01-21T11:14:11.365Z,100327.97
2023-01-21T11:16:44.248Z,100326.84
2023-01-21T11:19:15.703Z,100324.67
2023-01-21T11:21:59.336Z,100326.20
2023-01-21T11:24:29.070Z,100322.67
2023-01-21T11:26:58.864Z,100323.55
2023-01-21T11:29:37.945Z,100323.05
2023-01-21T11:32:17.971Z,100327.77
2023-01-21T11:34:47.884Z,100323.23
2023-01-21T11:37:24.007Z,100326.78
2023-01-21T11:39:55.614Z,100330.68
2023-01-21T11:42:24.593Z,100327.81
2023-01-21T11:44:54.681Z,100334.58
2023-01-21T11:47:37.740Z,100333.36
2023-01-21T11:50:15.666Z,100339.47
2023-01-21T11:52:43.919Z,100346.88
2023-01-21T11:55:29.180Z,100355.64
2023-01-21T11:57:57.395Z,100359.66
2023-01-21T12:00:27.781Z,100363.06
2023-01-21T12:02:59.869Z,100365.80
2023-01-21T12:05:32.063Z,100372.09
2023-01-21T12:08:02.153Z,100372.60
2023-01-21T12:10:34.521Z,100377.48
2023-01-21T12:13:19.439Z,100375.12
2023-01-21T12:16:05.494Z,100380.77
2023-01-21T12:18:47.595Z,100385.44
2023-01-21T12:21:21.989Z,100388.84
2023-01-21T12:24:05.858Z,100390.23
2023-01-21T12:26:38.778Z,100392.73
2023-01-21T12:29:32.113Z,100396.36
2023-01-21T12:32:05.492Z,100398.95
2023-01-21T12:34:38.547Z,100399.86
2023-01-21T12:37:14.225Z,100402.09
2023-01-21T12:39:43.254Z,100406.79
2023-01-21T12:42:15.555Z,100412.73
2023-01-21T12:44:47.890Z,100412.80
2023-01-21T12:47:25.295Z,100421.08
2023-01-21T12:50:19.996Z,100423.52
2023-01-21T12:53:01.986Z,100430.45
2023-01-21T12:55:43.559Z,100431.63
2023-01-21T12:58:15.444Z,100442.05
2023-01-21T13:00:47.245Z,100443.55
2023-01-21T13:03:27.765Z,100440.98
2023-01-21T13:06:00.878Z,100443.08
2023-01-21T13:08:41.618Z,100447.65
2023-01-21T13:11:18.334Z,100450.67
2023-01-21T13:13:54.871Z,100454.72
2023-01-21T13:16:25.993Z,100458.63
2023-01-21T13:18:55.983Z,100465.54
2023-01-21T13:21:34.687Z,100469.59
2023-01-21T13:24:14.486Z,100479.05
2023-01-21T13:26:50.064Z,100480.59
2023-01-21T13:29:25.987Z,100484.48
2023-01-21T13:32:10.517Z,100481.46
2023-01-21T13:34:44.870Z,100489.41
2023-01-21T13:37:22.995Z,100490.09
2023-01-21T13:40:08.195Z,100493.00
2023-01-21T13:42:44.007Z,100496.73
2023-01-21T13:45:30.377Z,100496.08
2023-01-21T13:48:16.659Z,100501.02
2023-01-21T13:51:01.066Z,100507.34
2023-01-21T13:53:47.193Z,100512.08
2023-01-21T13:56:32.046Z,100516.32
2023-01-21T13:59:05.817Z,100523.41
2023-01-21T14:01:43.542Z,100524.11
2023-01-21T14:04:18.212Z,100530.38
2023-01-21T14:06:52.807Z,100535.53
2023-01-21T14:09:27.337Z,100542.98
2023-01-21T14:12:03.225Z,100546.41
2023-01-21T14:15:02.899Z,100546.08
2023-01-21T14:18:18.708Z,100552.89
2023-01-21T14:20:57.190Z,100553.08
2023-01-21T14:23:45.534Z,100556.77
2023-01-21T14:26:30.643Z,100558.64
2023-01-21T14:29:09.981Z,100561.52
2023-01-21T14:31:43.193Z,100568.15
2023-01-21T14:34:18.612Z,100570.01
2023-01-21T14:36:55.791Z,100572.05
2023-01-21T14:39:36.366Z,100577.11
2023-01-21T14:42:10.151Z,100578.97
2023-01-21T14:44:44.567Z,100585.92
2023-01-21T14:47:40.294Z,100592.23
2023-01-21T14:50:09.852Z,100593.91
2023-01-21T14:52:43.424Z,100596.61
2023-01-21T14:55:27.884Z,100602.84
2023-01-21T14:57:57.505Z,100612.83
2023-01-21T15:00:30.263Z,100618.11
2023-01-21T15:03:14.483Z,100621.69
2023-01-21T15:05:45.053Z,100627.07
2023-01-21T15:08:23.440Z,100635.67
2023-01-21T15:10:55.824Z,100636.15
2023-01-21T15:13:33.954Z,100642.89
2023-01-21T15:16:15.103Z,100648.73
2023-01-21T15:18:50.309Z,100658.11
2023-01-21T15:21:37.264Z,100665.38
2023-01-21T15:24:26.684Z,100667.23
2023-01-21T15:27:14.361Z,100670.78
2023-01-21T15:29:44.220Z,100673.66
2023-01-21T15:32:32.867Z,100677.23
2023-01-21T15:35:13.620Z,100677.05
2023-01-21T15:37:45.796Z,100677.25
2023-01-21T15:40:26.371Z,100679.78
2023-01-21T15:43:04.197Z,100684.23
2023-01-21T15:45:42.279Z,100685.62
2023-01-21T15:48:25.334Z,100694.73
2023-01-21T15:51:02.663Z,100697.66
2023-01-21T15:53:55.960Z,100694.29
2023-01-21T15:56:37.977Z,100699.33
2023-01-21T15:59:20.708Z,100700.68
2023-01-21T16:02:12.782Z,100707.28
2023-01-21T16:04:48.160Z,100708.25
2023-01-21T16:07:25.035Z,100713.66
2023-01-21T16:10:07.219Z,100721.81
2023-01-21T16:12:46.791Z,100725.08
2023-01-21T16:15:20.582Z,100725.92
2023-01-21T16:18:06.896Z,100733.20
2023-01-21T16:20:35.511Z,100737.52
2023-01-21T16:23:07.045Z,100740.63
2023-01-21T16:25:44.551Z,100747.02
2023-01-21T16:28:12.604Z,100748.77
2023-01-21T16:30:51.574Z,100754.71
2023-01-21T16:33:20.114Z,100753.58
2023-01-21T16:35:50.862Z,100758.63
2023-01-21T16:38:20.445Z,100763.68
2023-01-21T16:40:50.545Z,100768.26
2023-01-21T16:43:24.600Z,100775.95
2023-01-21T16:45:54.487Z,100779.98
2023-01-21T16:48:25.160Z,100780.81
2023-01-21T16:50:54.383Z,100783.56
2023-01-21T16:53:24.328Z,100789.72
2023-01-21T16:55:54.820Z,100794.19
2023-01-21T16:58:29.040Z,100794.30
2023-01-21T17:01:05.972Z,100798.41
2023-01-21T17:03:34.675Z,100799.80
2023-01-21T17:06:07.986Z,100806.25
2023-01-21T17:08:36.444Z,100812.56
2023-01-21T17:11:08.522Z,100816.37
2023-01-21T17:13:40.687Z,100817.95
2023-01-21T17:16:19.713Z,100817.91
2023-01-21T17:18:53.865Z,100824.59
2023-01-21T17:21:30.616Z,100829.44
2023-01-21T17:24:03.259Z,100838.20
2023-01-21T17:26:36.374Z,100841.63
2023-01-21T17:29:17.202Z,100845.55
2023-01-21T17:31:46.089Z,100848.39
2023-01-21T17:34:22.411Z,100855.96
2023-01-21T17:36:52.432Z,100864.73
2023-01-21T17:40:05.760Z,100868.30
2023-01-21T17:42:40.376Z,100874.09
2023-01-21T17:45:19.771Z,100877.88
2023-01-21T17:48:08.061Z,100879.06
2023-01-21T17:50:44.037Z,100886.53
2023-01-21T17:53:21.972Z,100891.06
2023-01-21T17:55:59.360Z,100896.41
2023-01-21T17:58:51.312Z,100897.86
2023-01-21T18:01:21.425Z,100898.69
2023-01-21T18:03:49.752Z,100902.89
2023-01-21T18:06:22.547Z,100904.05
2023-01-21T18:08:50.544Z,100913.05
2023-01-21T18:11:20.012Z,100916.63
2023-01-21T18:13:48.313Z,100921.08
2023-01-21T18:16:16.611Z,100927.86
2023-01-21T18:18:44.969Z,100928.84
2023-01-21T18:21:21.196Z,100937.30
2023-01-21T18:23:50.054Z,100939.32
2023-01-21T18:26:28.118Z,100939.98
2023-01-21T18:28:56.214Z,100945.52
2023-01-21T18:31:25.437Z,100947.67
2023-01-21T18:33:53.985Z,100950.75
2023-01-21T18:36:23.734Z,100953.84
2023-01-21T18:38:51.975Z,100958.02
2023-01-21T18:41:20.188Z,100958.40
2023-01-21T18:43:48.614Z,100960.38
2023-01-21T18:46:19.028Z,100959.55
2023-01-21T18:48:47.043Z,100964.27
2023-01-21T18:51:15.129Z,100965.61
2023-01-21T18:53:43.360Z,100967.11
2023-01-21T18:56:13.810Z,100965.24
2023-01-21T18:58:42.184Z,100965.80
2023-01-21T19:01:21.790Z,100967.77
2023-01-21T19:03:52.201Z,100970.85
2023-01-21T19:06:20.535Z,100974.69
2023-01-21T19:08:48.677Z,100978.58
2023-01-21T19:11:17.457Z,100978.02
2023-01-21T19:13:45.747Z,100987.61
2023-01-21T19:16:17.493Z,100984.08
2023-01-21T19:18:46.132Z,100991.02
2023-01-21T19:21:14.082Z,100989.16
2023-01-21T19:23:42.450Z,100999.84
2023-01-21T19:26:13.492Z,101004.58
2023-01-21T19:28:42.021Z,101007.82
2023-01-21T19:31:10.274Z,101012.24
2023-01-21T19:33:42.190Z,101017.70
2023-01-21T19:36:15.750Z,101022.66
2023-01-21T19:38:49.603Z,101024.67
2023-01-21T19:41:17.694Z,101029.31
2023-01-21T19:43:45.902Z,101030.30
2023-01-21T19:46:14.174Z,101036.92
2023-01-21T19:48:42.328Z,101037.70
2023-01-21T19:51:10.419Z,101038.34
2023-01-21T19:53:38.719Z,101041.70
2023-01-21T19:56:12.168Z,101043.54
2023-01-21T19:58:41.473Z,101044.23
2023-01-21T20:01:10.800Z,101050.20
2023-01-21T20:03:48.124Z,101053.78
2023-01-21T20:06:23.606Z,101058.75
2023-01-21T20:08:52.191Z,101062.98
2023-01-21T20:11:21.431Z,101062.30
2023-01-21T20:13:49.597Z,101063.88
2023-01-21T20:16:20.207Z,101067.16
2023-01-21T20:18:49.287Z,101071.59
2023-01-21T20:21:17.313Z,101077.64
2023-01-21T20:23:45.411Z,101083.06
2023-01-21T20:26:20.719Z,101088.02
2023-01-21T20:28:53.784Z,101091.11
2023-01-21T20:31:22.046Z,101094.09
2023-01-21T20:33:50.176Z,101096.88
2023-01-21T20:36:20.961Z,101102.15
2023-01-21T20:38:49.409Z,101103.18
2023-01-21T20:41:17.428Z,101103.21
2023-01-21T20:43:45.500Z,101106.80
2023-01-21T20:46:17.526Z,101112.07
2023-01-21T20:48:45.630Z,101116.35
2023-01-21T20:51:13.786Z,101117.07
2023-01-21T20:53:42.024Z,101119.46
2023-01-21T20:56:22.862Z,101126.07
2023-01-21T20:58:51.411Z,101134.52
2023-01-21T21:01:22.923Z,101136.06
2023-01-21T21:03:51.429Z,101139.38
2023-01-21T21:06:21.976Z,101143.27
2023-01-21T21:08:50.472Z,101147.05
2023-01-21T21:11:19.197Z,101152.34
2023-01-21T21:13:51.117Z,101153.09
2023-01-21T21:16:21.768Z,101156.27
2023-01-21T21:18:50.785Z,101159.59
2023-01-21T21:21:21.687Z,101163.19
2023-01-21T21:23:51.661Z,101168.36
2023-01-21T21:26:22.447Z,101175.62
2023-01-21T21:28:53.876Z,101180.02
2023-01-21T21:31:22.882Z,101180.20
2023-01-21T21:33:51.003Z,101185.73
2023-01-21T21:36:21.030Z,101187.77
2023-01-21T21:38:51.513Z,101190.48
2023-01-21T21:41:39.866Z,101191.91
2023-01-21T21:44:09.253Z,101197.64
2023-01-21T21:46:56.883Z,101194.92
2023-01-21T21:49:25.090Z,101199.92
2023-01-21T21:51:53.323Z,101199.98
2023-01-21T21:54:22.151Z,101201.03
2023-01-21T21:56:50.033Z,101201.23
2023-01-21T21:59:18.017Z,101203.64
2023-01-21T22:01:45.958Z,101207.06
2023-01-21T22:04:15.119Z,101208.73
2023-01-21T22:06:43.125Z,101214.92
2023-01-21T22:09:11.398Z,101218.31
2023-01-21T22:11:39.355Z,101221.36
2023-01-21T22:14:07.873Z,101220.21
2023-01-21T22:16:35.940Z,101221.89
2023-01-21T22:19:04.134Z,101230.48
2023-01-21T22:21:33.657Z,101234.27
2023-01-21T22:24:02.174Z,101239.06
2023-01-21T22:26:30.384Z,101242.43
2023-01-21T22:28:58.741Z,101246.95
2023-01-21T22:31:28.484Z,101244.73
2023-01-21T22:33:58.228Z,101246.09
2023-01-21T22:36:29.276Z,101247.91
2023-01-21T22:38:57.912Z,101247.04
2023-01-21T22:41:26.793Z,101250.61
2023-01-21T22:43:54.779Z,101251.88
2023-01-21T22:46:24.597Z,101252.45
2023-01-21T22:48:53.700Z,101254.38
2023-01-21T22:51:22.320Z,101254.39
2023-01-21T22:53:51.281Z,101254.83
2023-01-21T22:56:23.405Z,101258.36
2023-01-21T22:58:51.589Z,101257.45
2023-01-21T23:01:24.461Z,101259.16
2023-01-21T23:03:52.921Z,101257.00
2023-01-21T23:06:20.940Z,101262.77
2023-01-21T23:08:49.147Z,101265.15
2023-01-21T23:11:18.809Z,101269.67
2023-01-21T23:13:49.372Z,101273.55
2023-01-21T23:16:19.299Z,101272.13
2023-01-21T23:18:47.949Z,101278.10
2023-01-21T23:21:18.216Z,101277.08
2023-01-21T23:23:46.519Z,101277.42
2023-01-21T23:26:15.452Z,101279.58
2023-01-21T23:28:43.425Z,101285.20
2023-01-21T23:31:14.118Z,101284.83
2023-01-21T23:33:42.294Z,101281.31
2023-01-21T23:36:12.623Z,101278.45
2023-01-21T23:38:41.590Z,101279.63
2023-01-21T23:41:11.425Z,101284.17
2023-01-21T23:43:40.225Z,101278.19
2023-01-21T23:46:11.014Z,101282.38
2023-01-21T23:48:39.617Z,101287.27
2023-01-21T23:51:11.355Z,101287.75
2023-01-21T23:53:39.275Z,101289.38
2023-01-21T23:56:10.440Z,101284.75
2023-01-21T23:58:38.776Z,101290.04
